sensor_id;sensor_type;location;lat;lon;timestamp;temperature;humidity
46378;DHT22;32083;47.360;9.650;2023-06-14T04:00:48;12.90;91.70
46378;DHT22;32083;47.360;9.650;2023-06-14T04:03:16;12.90;91.90
46378;DHT22;32083;47.360;9.650;2023-06-14T04:05:42;12.90;91.00
46378;DHT22;32083;47.360;9.650;2023-06-14T04:08:09;13.00;91.40
46378;DHT22;32083;47.360;9.650;2023-06-14T04:10:35;13.00;91.10
46378;DHT22;32083;47.360;9.650;2023-06-14T04:23:23;13.20;91.30
46378;DHT22;32083;47.360;9.650;2023-06-14T04:25:49;13.30;90.60
46378;DHT22;32083;47.360;9.650;2023-06-14T04:28:15;13.40;90.80
46378;DHT22;32083;47.360;9.650;2023-06-14T04:30:43;13.50;90.90
46378;DHT22;32083;47.360;9.650;2023-06-14T04:33:10;13.70;90.60
46378;DHT22;32083;47.360;9.650;2023-06-14T04:35:37;13.80;90.60
46378;DHT22;32083;47.360;9.650;2023-06-14T04:38:03;13.80;90.50
46378;DHT22;32083;47.360;9.650;2023-06-14T04:40:36;13.90;90.30
46378;DHT22;32083;47.360;9.650;2023-06-14T04:43:09;14.00;90.60
46378;DHT22;32083;47.360;9.650;2023-06-14T04:45:38;14.30;90.00
46378;DHT22;32083;47.360;9.650;2023-06-14T04:48:05;14.90;89.50
46378;DHT22;32083;47.360;9.650;2023-06-14T04:50:32;15.60;88.50
46378;DHT22;32083;47.360;9.650;2023-06-14T04:52:59;16.20;89.90
46378;DHT22;32083;47.360;9.650;2023-06-14T04:55:25;16.70;86.10
46378;DHT22;32083;47.360;9.650;2023-06-14T04:57:52;17.20;88.30
46378;DHT22;32083;47.360;9.650;2023-06-14T05:00:34;17.40;85.00
46378;DHT22;32083;47.360;9.650;2023-06-14T05:27:00;19.40;79.20
46378;DHT22;32083;47.360;9.650;2023-06-14T05:29:26;19.40;77.70
46378;DHT22;32083;47.360;9.650;2023-06-14T05:31:53;19.80;77.20
46378;DHT22;32083;47.360;9.650;2023-06-14T05:34:19;19.90;76.50
46378;DHT22;32083;47.360;9.650;2023-06-14T05:36:45;19.60;69.90
46378;DHT22;32083;47.360;9.650;2023-06-14T05:39:11;19.20;71.00
46378;DHT22;32083;47.360;9.650;2023-06-14T05:41:36;19.10;73.60
46378;DHT22;32083;47.360;9.650;2023-06-14T05:44:03;19.30;73.90
46378;DHT22;32083;47.360;9.650;2023-06-14T05:46:29;19.30;73.90
46378;DHT22;32083;47.360;9.650;2023-06-14T05:48:55;19.20;74.10
46378;DHT22;32083;47.360;9.650;2023-06-14T05:51:22;18.90;71.40
46378;DHT22;32083;47.360;9.650;2023-06-14T05:53:50;18.90;73.20
46378;DHT22;32083;47.360;9.650;2023-06-14T05:56:17;18.70;72.20
46378;DHT22;32083;47.360;9.650;2023-06-14T05:58:44;18.90;71.50
46378;DHT22;32083;47.360;9.650;2023-06-14T06:01:11;18.80;71.40
46378;DHT22;32083;47.360;9.650;2023-06-14T06:03:37;18.90;72.50
46378;DHT22;32083;47.360;9.650;2023-06-14T06:06:03;18.70;71.90
46378;DHT22;32083;47.360;9.650;2023-06-14T06:08:29;18.50;71.40
46378;DHT22;32083;47.360;9.650;2023-06-14T06:10:55;18.90;72.30
46378;DHT22;32083;47.360;9.650;2023-06-14T06:13:22;19.10;71.90
46378;DHT22;32083;47.360;9.650;2023-06-14T06:15:48;19.30;77.30
46378;DHT22;32083;47.360;9.650;2023-06-14T06:18:14;19.50;73.40
46378;DHT22;32083;47.360;9.650;2023-06-14T06:20:40;19.60;73.10
46378;DHT22;32083;47.360;9.650;2023-06-14T06:23:06;19.90;71.30
46378;DHT22;32083;47.360;9.650;2023-06-14T06:25:33;20.30;72.80
46378;DHT22;32083;47.360;9.650;2023-06-14T06:27:59;20.40;71.20
46378;DHT22;32083;47.360;9.650;2023-06-14T06:30:25;20.30;71.70
46378;DHT22;32083;47.360;9.650;2023-06-14T06:32:52;20.30;72.40
46378;DHT22;32083;47.360;9.650;2023-06-14T06:35:18;20.20;71.00
46378;DHT22;32083;47.360;9.650;2023-06-14T06:37:44;20.10;73.40
46378;DHT22;32083;47.360;9.650;2023-06-14T06:40:10;20.30;74.20
46378;DHT22;32083;47.360;9.650;2023-06-14T06:42:36;20.60;71.10
46378;DHT22;32083;47.360;9.650;2023-06-14T06:45:03;20.50;70.70
46378;DHT22;32083;47.360;9.650;2023-06-14T06:47:29;20.40;70.70
46378;DHT22;32083;47.360;9.650;2023-06-14T06:49:56;20.70;73.60
46378;DHT22;32083;47.360;9.650;2023-06-14T06:52:22;20.60;70.30
46378;DHT22;32083;47.360;9.650;2023-06-14T06:54:47;20.50;69.90
46378;DHT22;32083;47.360;9.650;2023-06-14T06:57:14;20.50;71.30
46378;DHT22;32083;47.360;9.650;2023-06-14T06:59:40;20.30;72.20
46378;DHT22;32083;47.360;9.650;2023-06-14T07:02:06;20.40;71.90
46378;DHT22;32083;47.360;9.650;2023-06-14T07:04:32;20.40;71.40
46378;DHT22;32083;47.360;9.650;2023-06-14T07:06:58;20.50;70.70
46378;DHT22;32083;47.360;9.650;2023-06-14T07:09:24;20.60;71.40
46378;DHT22;32083;47.360;9.650;2023-06-14T07:11:50;20.60;70.70
46378;DHT22;32083;47.360;9.650;2023-06-14T07:14:16;20.20;69.70
46378;DHT22;32083;47.360;9.650;2023-06-14T07:16:42;20.30;72.00
46378;DHT22;32083;47.360;9.650;2023-06-14T07:19:08;20.40;70.80
46378;DHT22;32083;47.360;9.650;2023-06-14T07:21:36;20.40;69.70
46378;DHT22;32083;47.360;9.650;2023-06-14T07:24:06;20.60;70.30
46378;DHT22;32083;47.360;9.650;2023-06-14T07:26:32;20.80;69.70
46378;DHT22;32083;47.360;9.650;2023-06-14T07:28:58;20.90;68.60
46378;DHT22;32083;47.360;9.650;2023-06-14T07:31:24;20.90;70.80
46378;DHT22;32083;47.360;9.650;2023-06-14T07:33:50;21.20;70.00
46378;DHT22;32083;47.360;9.650;2023-06-14T07:36:16;21.20;69.10
46378;DHT22;32083;47.360;9.650;2023-06-14T07:38:43;21.10;69.20
46378;DHT22;32083;47.360;9.650;2023-06-14T07:41:09;20.90;69.80
46378;DHT22;32083;47.360;9.650;2023-06-14T07:43:35;21.10;69.90
46378;DHT22;32083;47.360;9.650;2023-06-14T07:46:01;21.10;67.00
46378;DHT22;32083;47.360;9.650;2023-06-14T07:48:28;21.10;66.60
46378;DHT22;32083;47.360;9.650;2023-06-14T07:50:54;21.30;66.10
46378;DHT22;32083;47.360;9.650;2023-06-14T07:53:20;21.00;67.00
46378;DHT22;32083;47.360;9.650;2023-06-14T07:55:46;21.20;67.70
46378;DHT22;32083;47.360;9.650;2023-06-14T07:58:14;21.30;68.30
46378;DHT22;32083;47.360;9.650;2023-06-14T08:00:40;21.20;68.00
46378;DHT22;32083;47.360;9.650;2023-06-14T08:03:06;21.30;68.10
46378;DHT22;32083;47.360;9.650;2023-06-14T08:05:32;21.40;69.30
46378;DHT22;32083;47.360;9.650;2023-06-14T08:07:58;21.30;70.00
46378;DHT22;32083;47.360;9.650;2023-06-14T08:10:24;21.60;70.70
46378;DHT22;32083;47.360;9.650;2023-06-14T08:12:50;21.80;69.30
46378;DHT22;32083;47.360;9.650;2023-06-14T08:15:17;21.60;69.40
46378;DHT22;32083;47.360;9.650;2023-06-14T08:17:46;21.50;66.60
46378;DHT22;32083;47.360;9.650;2023-06-14T08:20:12;21.30;65.60
46378;DHT22;32083;47.360;9.650;2023-06-14T08:22:42;21.40;67.00
46378;DHT22;32083;47.360;9.650;2023-06-14T08:25:09;21.20;66.10
46378;DHT22;32083;47.360;9.650;2023-06-14T08:27:35;21.30;68.30
46378;DHT22;32083;47.360;9.650;2023-06-14T08:30:01;21.40;66.60
46378;DHT22;32083;47.360;9.650;2023-06-14T08:32:28;21.60;67.70
46378;DHT22;32083;47.360;9.650;2023-06-14T08:34:54;21.70;67.20
46378;DHT22;32083;47.360;9.650;2023-06-14T08:37:20;21.80;67.40
46378;DHT22;32083;47.360;9.650;2023-06-14T08:39:46;21.80;66.20
46378;DHT22;32083;47.360;9.650;2023-06-14T08:42:12;21.90;67.10
46378;DHT22;32083;47.360;9.650;2023-06-14T08:44:39;21.80;67.80
46378;DHT22;32083;47.360;9.650;2023-06-14T08:47:07;21.80;68.60
46378;DHT22;32083;47.360;9.650;2023-06-14T08:49:36;21.90;66.80
46378;DHT22;32083;47.360;9.650;2023-06-14T08:52:05;21.90;65.40
46378;DHT22;32083;47.360;9.650;2023-06-14T08:54:34;21.90;65.20
46378;DHT22;32083;47.360;9.650;2023-06-14T08:57:03;21.90;65.20
46378;DHT22;32083;47.360;9.650;2023-06-14T08:59:32;21.90;65.30
46378;DHT22;32083;47.360;9.650;2023-06-14T09:02:05;21.80;64.40
46378;DHT22;32083;47.360;9.650;2023-06-14T09:04:32;21.80;65.00
46378;DHT22;32083;47.360;9.650;2023-06-14T09:06:59;21.80;64.20
46378;DHT22;32083;47.360;9.650;2023-06-14T09:09:25;21.80;65.60
46378;DHT22;32083;47.360;9.650;2023-06-14T09:11:54;21.80;66.40
46378;DHT22;32083;47.360;9.650;2023-06-14T09:14:21;21.90;65.40
46378;DHT22;32083;47.360;9.650;2023-06-14T09:16:47;21.90;64.70
46378;DHT22;32083;47.360;9.650;2023-06-14T09:19:24;21.90;63.90
46378;DHT22;32083;47.360;9.650;2023-06-14T09:21:50;21.90;65.00
46378;DHT22;32083;47.360;9.650;2023-06-14T09:24:18;21.90;64.30
46378;DHT22;32083;47.360;9.650;2023-06-14T09:26:47;22.00;62.90
46378;DHT22;32083;47.360;9.650;2023-06-14T09:29:13;22.00;62.50
46378;DHT22;32083;47.360;9.650;2023-06-14T09:31:39;22.00;63.50
46378;DHT22;32083;47.360;9.650;2023-06-14T09:34:05;22.00;62.10
46378;DHT22;32083;47.360;9.650;2023-06-14T09:36:32;22.00;64.50
46378;DHT22;32083;47.360;9.650;2023-06-14T09:39:00;22.20;63.80
46378;DHT22;32083;47.360;9.650;2023-06-14T09:41:39;22.40;63.90
46378;DHT22;32083;47.360;9.650;2023-06-14T09:44:09;22.40;63.00
46378;DHT22;32083;47.360;9.650;2023-06-14T09:46:36;22.60;63.00
46378;DHT22;32083;47.360;9.650;2023-06-14T09:49:04;22.70;62.80
46378;DHT22;32083;47.360;9.650;2023-06-14T09:51:30;22.60;62.80
46378;DHT22;32083;47.360;9.650;2023-06-14T09:54:00;22.60;63.30
46378;DHT22;32083;47.360;9.650;2023-06-14T09:56:41;22.60;65.00
46378;DHT22;32083;47.360;9.650;2023-06-14T09:59:09;22.60;65.60
46378;DHT22;32083;47.360;9.650;2023-06-14T10:01:41;22.80;64.80
46378;DHT22;32083;47.360;9.650;2023-06-14T10:04:09;22.80;63.50
46378;DHT22;32083;47.360;9.650;2023-06-14T10:06:45;22.80;62.80
46378;DHT22;32083;47.360;9.650;2023-06-14T10:09:12;22.90;63.80
46378;DHT22;32083;47.360;9.650;2023-06-14T10:11:38;23.00;63.50
46378;DHT22;32083;47.360;9.650;2023-06-14T10:14:10;23.00;64.70
46378;DHT22;32083;47.360;9.650;2023-06-14T10:19:24;23.00;64.90
46378;DHT22;32083;47.360;9.650;2023-06-14T10:22:02;23.10;62.20
46378;DHT22;32083;47.360;9.650;2023-06-14T10:24:48;23.10;61.80
46378;DHT22;32083;47.360;9.650;2023-06-14T10:27:16;23.30;60.40
46378;DHT22;32083;47.360;9.650;2023-06-14T10:32:27;23.30;64.00
46378;DHT22;32083;47.360;9.650;2023-06-14T10:37:21;23.30;61.60
46378;DHT22;32083;47.360;9.650;2023-06-14T10:39:47;23.40;64.10
46378;DHT22;32083;47.360;9.650;2023-06-14T10:42:14;23.40;62.40
46378;DHT22;32083;47.360;9.650;2023-06-14T10:44:50;23.50;64.90
46378;DHT22;32083;47.360;9.650;2023-06-14T10:49:55;23.80;62.00
46378;DHT22;32083;47.360;9.650;2023-06-14T10:52:24;23.80;61.90
46378;DHT22;32083;47.360;9.650;2023-06-14T10:57:25;23.90;61.80
46378;DHT22;32083;47.360;9.650;2023-06-14T10:59:51;23.90;61.10
46378;DHT22;32083;47.360;9.650;2023-06-14T11:05:16;23.80;62.10
46378;DHT22;32083;47.360;9.650;2023-06-14T11:10:43;24.00;61.20
46378;DHT22;32083;47.360;9.650;2023-06-14T11:13:11;24.10;57.80
46378;DHT22;32083;47.360;9.650;2023-06-14T11:15:38;24.10;60.90
46378;DHT22;32083;47.360;9.650;2023-06-14T11:18:08;24.20;59.40
46378;DHT22;32083;47.360;9.650;2023-06-14T11:20:37;24.40;60.10
46378;DHT22;32083;47.360;9.650;2023-06-14T11:23:04;24.50;58.70
46378;DHT22;32083;47.360;9.650;2023-06-14T11:25:30;24.60;58.60
46378;DHT22;32083;47.360;9.650;2023-06-14T11:27:57;24.60;58.40
46378;DHT22;32083;47.360;9.650;2023-06-14T11:30:23;24.60;56.80
46378;DHT22;32083;47.360;9.650;2023-06-14T11:32:52;24.70;58.50
46378;DHT22;32083;47.360;9.650;2023-06-14T11:35:21;24.80;56.40
46378;DHT22;32083;47.360;9.650;2023-06-14T11:37:49;24.90;57.40
46378;DHT22;32083;47.360;9.650;2023-06-14T11:40:17;24.80;56.00
46378;DHT22;32083;47.360;9.650;2023-06-14T11:42:43;24.90;56.70
46378;DHT22;32083;47.360;9.650;2023-06-14T11:45:10;25.00;56.00
46378;DHT22;32083;47.360;9.650;2023-06-14T11:47:38;25.10;57.30
46378;DHT22;32083;47.360;9.650;2023-06-14T11:50:06;25.20;56.90
46378;DHT22;32083;47.360;9.650;2023-06-14T11:52:34;25.30;56.40
46378;DHT22;32083;47.360;9.650;2023-06-14T11:55:01;25.20;53.10
46378;DHT22;32083;47.360;9.650;2023-06-14T11:57:33;25.20;54.90
46378;DHT22;32083;47.360;9.650;2023-06-14T11:59:59;25.30;55.80
46378;DHT22;32083;47.360;9.650;2023-06-14T12:02:25;25.30;55.40
46378;DHT22;32083;47.360;9.650;2023-06-14T12:04:53;25.30;53.30
46378;DHT22;32083;47.360;9.650;2023-06-14T12:07:22;25.30;53.00
46378;DHT22;32083;47.360;9.650;2023-06-14T12:12:23;25.60;54.00
46378;DHT22;32083;47.360;9.650;2023-06-14T12:14:51;25.60;52.80
46378;DHT22;32083;47.360;9.650;2023-06-14T12:17:18;25.70;52.70
46378;DHT22;32083;47.360;9.650;2023-06-14T12:19:45;25.80;51.90
46378;DHT22;32083;47.360;9.650;2023-06-14T12:22:12;25.80;51.00
46378;DHT22;32083;47.360;9.650;2023-06-14T12:24:38;25.80;52.50
46378;DHT22;32083;47.360;9.650;2023-06-14T12:27:05;26.00;53.40
46378;DHT22;32083;47.360;9.650;2023-06-14T12:29:32;26.30;53.40
46378;DHT22;32083;47.360;9.650;2023-06-14T12:31:58;26.30;52.00
46378;DHT22;32083;47.360;9.650;2023-06-14T12:34:24;26.40;53.40
46378;DHT22;32083;47.360;9.650;2023-06-14T12:36:50;26.30;51.80
46378;DHT22;32083;47.360;9.650;2023-06-14T12:39:17;26.40;52.00
46378;DHT22;32083;47.360;9.650;2023-06-14T12:41:43;26.50;52.70
46378;DHT22;32083;47.360;9.650;2023-06-14T12:44:10;26.70;52.40
46378;DHT22;32083;47.360;9.650;2023-06-14T12:46:36;26.70;50.40
46378;DHT22;32083;47.360;9.650;2023-06-14T12:49:03;26.70;50.70
46378;DHT22;32083;47.360;9.650;2023-06-14T12:51:29;26.60;49.60
46378;DHT22;32083;47.360;9.650;2023-06-14T12:53:55;26.70;50.90
46378;DHT22;32083;47.360;9.650;2023-06-14T12:56:21;26.60;51.60
46378;DHT22;32083;47.360;9.650;2023-06-14T12:58:47;26.70;51.50
46378;DHT22;32083;47.360;9.650;2023-06-14T13:01:13;26.80;52.00
46378;DHT22;32083;47.360;9.650;2023-06-14T13:03:38;26.80;54.10
46378;DHT22;32083;47.360;9.650;2023-06-14T13:06:04;27.00;52.90
46378;DHT22;32083;47.360;9.650;2023-06-14T13:08:30;27.10;52.20
46378;DHT22;32083;47.360;9.650;2023-06-14T13:10:57;27.00;51.20
46378;DHT22;32083;47.360;9.650;2023-06-14T13:13:23;27.20;53.90
46378;DHT22;32083;47.360;9.650;2023-06-14T13:15:49;27.30;51.30
46378;DHT22;32083;47.360;9.650;2023-06-14T13:18:16;27.40;52.40
46378;DHT22;32083;47.360;9.650;2023-06-14T13:20:42;27.50;51.80
46378;DHT22;32083;47.360;9.650;2023-06-14T13:23:09;27.60;52.50
46378;DHT22;32083;47.360;9.650;2023-06-14T13:25:36;27.60;51.60
46378;DHT22;32083;47.360;9.650;2023-06-14T13:28:04;27.70;53.40
46378;DHT22;32083;47.360;9.650;2023-06-14T13:30:30;27.70;50.80
46378;DHT22;32083;47.360;9.650;2023-06-14T13:32:56;27.50;49.70
46378;DHT22;32083;47.360;9.650;2023-06-14T13:35:23;27.30;49.70
46378;DHT22;32083;47.360;9.650;2023-06-14T13:37:49;27.40;52.50
46378;DHT22;32083;47.360;9.650;2023-06-14T13:40:15;27.50;51.50
46378;DHT22;32083;47.360;9.650;2023-06-14T13:42:41;27.50;51.30
46378;DHT22;32083;47.360;9.650;2023-06-14T13:45:09;27.50;49.80
46378;DHT22;32083;47.360;9.650;2023-06-14T13:47:35;27.60;51.80
46378;DHT22;32083;47.360;9.650;2023-06-14T13:50:03;27.50;49.90
46378;DHT22;32083;47.360;9.650;2023-06-14T13:52:29;27.50;51.80
46378;DHT22;32083;47.360;9.650;2023-06-14T13:54:55;27.50;49.40
46378;DHT22;32083;47.360;9.650;2023-06-14T13:57:21;27.50;50.40
46378;DHT22;32083;47.360;9.650;2023-06-14T13:59:47;27.60;51.80
46378;DHT22;32083;47.360;9.650;2023-06-14T14:02:13;27.60;50.70
46378;DHT22;32083;47.360;9.650;2023-06-14T14:04:39;27.70;52.70
46378;DHT22;32083;47.360;9.650;2023-06-14T14:07:06;27.60;50.70
46378;DHT22;32083;47.360;9.650;2023-06-14T14:09:33;27.30;49.60
46378;DHT22;32083;47.360;9.650;2023-06-14T14:12:00;27.20;48.70
46378;DHT22;32083;47.360;9.650;2023-06-14T14:14:27;27.30;49.10
46378;DHT22;32083;47.360;9.650;2023-06-14T14:16:53;27.30;50.30
46378;DHT22;32083;47.360;9.650;2023-06-14T14:19:24;27.40;49.80
46378;DHT22;32083;47.360;9.650;2023-06-14T14:21:50;27.10;49.10
46378;DHT22;32083;47.360;9.650;2023-06-14T14:24:16;27.20;51.10
46378;DHT22;32083;47.360;9.650;2023-06-14T14:26:42;27.30;50.70
46378;DHT22;32083;47.360;9.650;2023-06-14T14:29:08;27.00;48.60
46378;DHT22;32083;47.360;9.650;2023-06-14T14:31:37;27.00;48.80
46378;DHT22;32083;47.360;9.650;2023-06-14T14:34:03;27.20;50.40
46378;DHT22;32083;47.360;9.650;2023-06-14T14:36:29;27.20;49.20
46378;DHT22;32083;47.360;9.650;2023-06-14T14:38:55;27.10;49.30
46378;DHT22;32083;47.360;9.650;2023-06-14T14:41:21;27.10;49.60
46378;DHT22;32083;47.360;9.650;2023-06-14T14:43:47;27.20;51.00
46378;DHT22;32083;47.360;9.650;2023-06-14T14:46:13;27.10;49.60
46378;DHT22;32083;47.360;9.650;2023-06-14T14:48:38;27.10;49.90
46378;DHT22;32083;47.360;9.650;2023-06-14T14:51:04;27.20;48.70
46378;DHT22;32083;47.360;9.650;2023-06-14T14:53:30;27.40;51.60
46378;DHT22;32083;47.360;9.650;2023-06-14T14:55:56;27.50;49.70
46378;DHT22;32083;47.360;9.650;2023-06-14T14:58:22;27.60;51.50
46378;DHT22;32083;47.360;9.650;2023-06-14T15:00:48;27.60;50.40
46378;DHT22;32083;47.360;9.650;2023-06-14T15:03:14;27.30;49.50
46378;DHT22;32083;47.360;9.650;2023-06-14T15:05:40;27.00;47.30
46378;DHT22;32083;47.360;9.650;2023-06-14T15:08:06;27.10;48.60
46378;DHT22;32083;47.360;9.650;2023-06-14T15:10:39;27.20;49.10
46378;DHT22;32083;47.360;9.650;2023-06-14T15:13:07;27.10;48.90
46378;DHT22;32083;47.360;9.650;2023-06-14T15:15:34;27.30;51.80
46378;DHT22;32083;47.360;9.650;2023-06-14T15:18:00;27.50;50.80
46378;DHT22;32083;47.360;9.650;2023-06-14T15:20:26;27.30;49.20
46378;DHT22;32083;47.360;9.650;2023-06-14T15:22:53;27.20;50.00
46378;DHT22;32083;47.360;9.650;2023-06-14T15:25:21;27.40;52.80
46378;DHT22;32083;47.360;9.650;2023-06-14T15:27:47;27.30;47.40
46378;DHT22;32083;47.360;9.650;2023-06-14T15:30:13;27.20;49.90
46378;DHT22;32083;47.360;9.650;2023-06-14T15:32:39;27.20;49.40
46378;DHT22;32083;47.360;9.650;2023-06-14T15:35:05;27.10;47.70
46378;DHT22;32083;47.360;9.650;2023-06-14T15:37:31;26.90;48.60
46378;DHT22;32083;47.360;9.650;2023-06-14T15:39:57;26.80;47.20
46378;DHT22;32083;47.360;9.650;2023-06-14T15:42:23;26.80;48.90
46378;DHT22;32083;47.360;9.650;2023-06-14T15:44:49;27.00;48.30
46378;DHT22;32083;47.360;9.650;2023-06-14T15:47:15;26.90;49.70
46378;DHT22;32083;47.360;9.650;2023-06-14T15:49:41;26.90;48.10
46378;DHT22;32083;47.360;9.650;2023-06-14T15:52:07;27.00;50.40
46378;DHT22;32083;47.360;9.650;2023-06-14T15:54:33;27.00;49.60
46378;DHT22;32083;47.360;9.650;2023-06-14T15:56:59;27.00;49.20
46378;DHT22;32083;47.360;9.650;2023-06-14T15:59:25;27.00;49.80
46378;DHT22;32083;47.360;9.650;2023-06-14T16:01:53;27.10;49.70
46378;DHT22;32083;47.360;9.650;2023-06-14T16:04:19;27.00;48.50
46378;DHT22;32083;47.360;9.650;2023-06-14T16:06:45;26.90;49.10
46378;DHT22;32083;47.360;9.650;2023-06-14T16:09:11;26.90;46.80
46378;DHT22;32083;47.360;9.650;2023-06-14T16:11:37;26.70;47.60
46378;DHT22;32083;47.360;9.650;2023-06-14T16:14:03;26.90;49.70
46378;DHT22;32083;47.360;9.650;2023-06-14T16:16:30;26.90;48.50
46378;DHT22;32083;47.360;9.650;2023-06-14T16:18:55;26.90;49.70
46378;DHT22;32083;47.360;9.650;2023-06-14T16:21:21;26.90;50.20
46378;DHT22;32083;47.360;9.650;2023-06-14T16:23:47;26.90;49.90
46378;DHT22;32083;47.360;9.650;2023-06-14T16:26:14;26.90;48.80
46378;DHT22;32083;47.360;9.650;2023-06-14T16:28:41;26.90;50.00
46378;DHT22;32083;47.360;9.650;2023-06-14T16:31:12;26.90;49.50
46378;DHT22;32083;47.360;9.650;2023-06-14T16:33:43;26.80;48.80
46378;DHT22;32083;47.360;9.650;2023-06-14T16:36:09;26.90;49.80
46378;DHT22;32083;47.360;9.650;2023-06-14T16:38:35;26.80;47.60
46378;DHT22;32083;47.360;9.650;2023-06-14T16:41:01;26.90;50.80
46378;DHT22;32083;47.360;9.650;2023-06-14T16:43:27;26.80;49.20
46378;DHT22;32083;47.360;9.650;2023-06-14T16:45:52;26.80;49.00
46378;DHT22;32083;47.360;9.650;2023-06-14T16:48:18;26.80;50.40
46378;DHT22;32083;47.360;9.650;2023-06-14T16:50:46;26.60;49.70
46378;DHT22;32083;47.360;9.650;2023-06-14T16:53:12;26.60;49.50
46378;DHT22;32083;47.360;9.650;2023-06-14T16:55:38;26.50;50.10
46378;DHT22;32083;47.360;9.650;2023-06-14T16:58:04;26.40;49.80
46378;DHT22;32083;47.360;9.650;2023-06-14T17:00:30;26.40;49.40
46378;DHT22;32083;47.360;9.650;2023-06-14T17:02:56;26.30;49.60
46378;DHT22;32083;47.360;9.650;2023-06-14T17:05:22;26.30;49.30
46378;DHT22;32083;47.360;9.650;2023-06-14T17:07:48;26.20;49.50
46378;DHT22;32083;47.360;9.650;2023-06-14T17:10:14;26.10;50.20
46378;DHT22;32083;47.360;9.650;2023-06-14T17:12:40;26.00;49.30
46378;DHT22;32083;47.360;9.650;2023-06-14T17:15:07;26.10;50.50
46378;DHT22;32083;47.360;9.650;2023-06-14T17:17:33;26.00;49.30
46378;DHT22;32083;47.360;9.650;2023-06-14T17:19:59;26.10;50.30
46378;DHT22;32083;47.360;9.650;2023-06-14T17:22:25;26.10;50.80
46378;DHT22;32083;47.360;9.650;2023-06-14T17:24:51;25.90;49.50
46378;DHT22;32083;47.360;9.650;2023-06-14T17:27:18;25.80;49.80
46378;DHT22;32083;47.360;9.650;2023-06-14T17:29:44;25.80;51.60
46378;DHT22;32083;47.360;9.650;2023-06-14T17:32:10;25.90;52.40
46378;DHT22;32083;47.360;9.650;2023-06-14T17:34:36;25.90;52.10
46378;DHT22;32083;47.360;9.650;2023-06-14T17:37:03;25.70;50.50
46378;DHT22;32083;47.360;9.650;2023-06-14T17:39:29;25.60;49.50
46378;DHT22;32083;47.360;9.650;2023-06-14T17:41:55;25.70;50.20
46378;DHT22;32083;47.360;9.650;2023-06-14T17:44:21;25.60;52.00
46378;DHT22;32083;47.360;9.650;2023-06-14T17:46:47;25.50;50.50
46378;DHT22;32083;47.360;9.650;2023-06-14T17:49:13;25.50;51.60
46378;DHT22;32083;47.360;9.650;2023-06-14T17:51:39;25.50;51.60
46378;DHT22;32083;47.360;9.650;2023-06-14T17:54:05;25.40;51.70
46378;DHT22;32083;47.360;9.650;2023-06-14T17:56:32;25.30;50.30
46378;DHT22;32083;47.360;9.650;2023-06-14T17:58:58;25.10;51.00
46378;DHT22;32083;47.360;9.650;2023-06-14T18:01:24;25.20;51.30
46378;DHT22;32083;47.360;9.650;2023-06-14T18:03:51;25.20;51.60
46378;DHT22;32083;47.360;9.650;2023-06-14T18:06:17;25.10;52.10
46378;DHT22;32083;47.360;9.650;2023-06-14T18:08:43;25.10;52.10
46378;DHT22;32083;47.360;9.650;2023-06-14T18:11:12;25.00;52.20
46378;DHT22;32083;47.360;9.650;2023-06-14T18:13:38;24.90;51.10
46378;DHT22;32083;47.360;9.650;2023-06-14T18:16:04;24.90;51.90
46378;DHT22;32083;47.360;9.650;2023-06-14T18:18:30;24.80;52.10
46378;DHT22;32083;47.360;9.650;2023-06-14T18:20:56;24.80;52.10
46378;DHT22;32083;47.360;9.650;2023-06-14T18:23:23;24.70;52.00
46378;DHT22;32083;47.360;9.650;2023-06-14T18:25:49;24.70;52.20
46378;DHT22;32083;47.360;9.650;2023-06-14T18:28:15;24.70;51.90
46378;DHT22;32083;47.360;9.650;2023-06-14T18:30:41;24.60;52.20
46378;DHT22;32083;47.360;9.650;2023-06-14T18:33:07;24.40;52.30
46378;DHT22;32083;47.360;9.650;2023-06-14T18:35:33;24.40;52.30
46378;DHT22;32083;47.360;9.650;2023-06-14T18:37:59;24.40;52.80
46378;DHT22;32083;47.360;9.650;2023-06-14T18:40:25;24.30;53.20
46378;DHT22;32083;47.360;9.650;2023-06-14T18:42:51;24.20;53.00
46378;DHT22;32083;47.360;9.650;2023-06-14T18:45:17;24.10;53.10
46378;DHT22;32083;47.360;9.650;2023-06-14T18:47:43;24.00;53.70
46378;DHT22;32083;47.360;9.650;2023-06-14T18:50:09;23.90;53.20
46378;DHT22;32083;47.360;9.650;2023-06-14T18:52:35;23.90;53.60
46378;DHT22;32083;47.360;9.650;2023-06-14T18:55:01;23.80;54.00
46378;DHT22;32083;47.360;9.650;2023-06-14T18:57:27;23.70;54.10
46378;DHT22;32083;47.360;9.650;2023-06-14T18:59:53;23.60;54.30
46378;DHT22;32083;47.360;9.650;2023-06-14T19:02:19;23.50;55.00
46378;DHT22;32083;47.360;9.650;2023-06-14T19:04:45;23.40;55.10
46378;DHT22;32083;47.360;9.650;2023-06-14T19:07:10;23.40;55.60
46378;DHT22;32083;47.360;9.650;2023-06-14T19:09:36;23.30;55.30
46378;DHT22;32083;47.360;9.650;2023-06-14T19:12:03;23.20;55.70
46378;DHT22;32083;47.360;9.650;2023-06-14T19:14:29;23.10;55.80
46378;DHT22;32083;47.360;9.650;2023-06-14T19:16:55;23.00;56.20
46378;DHT22;32083;47.360;9.650;2023-06-14T19:19:21;22.90;56.40
46378;DHT22;32083;47.360;9.650;2023-06-14T19:21:47;22.90;56.20
46378;DHT22;32083;47.360;9.650;2023-06-14T19:24:13;22.80;56.60
46378;DHT22;32083;47.360;9.650;2023-06-14T19:26:42;22.80;56.50
46378;DHT22;32083;47.360;9.650;2023-06-14T19:29:09;22.70;56.80
46378;DHT22;32083;47.360;9.650;2023-06-14T19:31:35;22.60;56.90
46378;DHT22;32083;47.360;9.650;2023-06-14T19:34:02;22.60;57.60
46378;DHT22;32083;47.360;9.650;2023-06-14T19:36:28;22.50;57.90
46378;DHT22;32083;47.360;9.650;2023-06-14T19:38:54;22.40;57.60
46378;DHT22;32083;47.360;9.650;2023-06-14T19:41:20;22.40;57.80
46378;DHT22;32083;47.360;9.650;2023-06-14T19:43:46;22.40;58.50
46378;DHT22;32083;47.360;9.650;2023-06-14T19:46:12;22.20;58.10
46378;DHT22;32083;47.360;9.650;2023-06-14T19:48:42;22.20;58.50
46378;DHT22;32083;47.360;9.650;2023-06-14T19:51:08;22.20;57.90
46378;DHT22;32083;47.360;9.650;2023-06-14T19:53:34;22.10;58.40
46378;DHT22;32083;47.360;9.650;2023-06-14T19:56:00;22.10;58.40
46378;DHT22;32083;47.360;9.650;2023-06-14T19:58:26;22.10;58.90
46378;DHT22;32083;47.360;9.650;2023-06-14T20:00:52;22.00;58.80
46378;DHT22;32083;47.360;9.650;2023-06-14T20:03:18;22.00;58.30
46378;DHT22;32083;47.360;9.650;2023-06-14T20:05:44;21.80;58.20
46378;DHT22;32083;47.360;9.650;2023-06-14T20:08:10;21.80;58.90
46378;DHT22;32083;47.360;9.650;2023-06-14T20:10:36;21.70;58.80
46378;DHT22;32083;47.360;9.650;2023-06-14T20:13:02;21.70;59.30
46378;DHT22;32083;47.360;9.650;2023-06-14T20:15:30;21.70;58.70
46378;DHT22;32083;47.360;9.650;2023-06-14T20:17:56;21.70;59.10
46378;DHT22;32083;47.360;9.650;2023-06-14T20:20:22;21.70;59.40
46378;DHT22;32083;47.360;9.650;2023-06-14T20:22:48;21.70;59.20